Aeroporto :
LOGIN :

Iscrizione | Disclaimer

   EN    FR    IT 

 










Sommario :    VFR   VFR Marginale   IFR   IFR Intensivo   IFR Molto Intensivo
Visibilità : 
Base nubi : 
>= 8 km
>= 3000ft
5 / 8 km
1000 / 3000 ft
1500m / 5 km
500 / 1000 ft
800 / 1500m
200 / 500 ft
< 800m
< 200 ft
Simboli :   Temporali  Nebbia  Neve Forte  Precipitazioni Forti  Vento > 20 kt
SIGMETs :   Varie  Temporali  Ghiacco  Turbolenza  Onda orograficha  Ceneri Vulcaniche






- Altitudine del aeroporto : 751 ft
- Codice IATA : ENC


LFSN - Nancy Essey

ULTIMO METAR :
  • 290430Z AUTO 19005KT 9999 BKN032/// BKN040/// OVC047/// //////TCU 14/12 Q1016

METARs OBSOLETI :
  • 290400Z AUTO 19006KT 9999 BKN042/// OVC050/// ///TCU 14/11 Q1016
  • 290330Z AUTO 18005KT 150V210 9999 FEW045 BKN084 OVC100 14/12 Q1016
  • 290300Z AUTO 19005KT 9999 SCT047/// OVC086/// //////TCU 14/11 Q1016
  • 290230Z AUTO 19004KT 9999 SCT046/// OVC088/// //////TCU 15/11 Q1016
  • 290200Z AUTO 19003KT 160V230 9999 BKN047 BKN056 OVC066 15/11 Q1016
  • 290130Z AUTO 18004KT 9999 SCT047 BKN064 OVC100 15/11 Q1017
  • 290100Z AUTO 19006KT CAVOK 15/11 Q1017
  • 290030Z AUTO 20005KT CAVOK 15/11 Q1017
  • 290000Z AUTO 18004KT 140V210 CAVOK 15/11 Q1018

Previsioni scadute.



MetMap, La meteo Aeronautica in un colpo d'occhio ! - Copyright ORBIFLY Dicembre 2007 - Disclaimer

ORBIFLY MET'MAP TEAM :

Programmazione e sviluppo : Alexandra Zaïnal
Concezione : Baudouin d'Aumeries
Supporto tecnico e logistico : Manuel Goepfert
Aiuto : Marc-Olivier Méhu
Aiuto per la traduzione : Arnaldo La Scala




FONTI E CREDITI :

   NOAA